Ottumwa, IA

7:32 PM CST on February 24, 2017 (GMT -0600)
East | | Change Station

Elev 833 ft 41.03 °N, 92.40 °W | Updated 14 seconds ago

Snow
Snow
26.5 °F
Feels Like 20 °F
N
6.0
Wind Variable Wind from WNW
Gusts 12.0 mph

Today
High -- | Low -- °F
--% Chance of Precip.
Yesterday
High -- | Low -- °F
Precip. -- in
Pressure 29.76 in
Visibility 2.0 miles
Clouds Scattered Clouds 1100 ft
Mostly Cloudy 1900 ft
Overcast 2400 ft
Windchill 20 °F
Dew Point 25 °F
Humidity 95%
Rainfall 0.05 in
Snow Depth Not available.
6:50 AM 5:55 PM
Waning Crescent, 3% visible
SPECI KOTM 250128Z AUTO 32022G26KT 2SM -SN BR SCT011 BKN019 OVC024 M03/M04 A2976 RMK AO2 PK WND 33031/0106 P0000 T10281039
Pressure 29.76 in
Visibility 2.0 miles
Clouds Scattered Clouds 1100 ft
Mostly Cloudy 1900 ft
Overcast 2400 ft
Windchill 20 °F
Dew Point 25 °F
Humidity 95%
Rainfall 0.05 in
Snow Depth Not available.
6:50 AM 5:55 PM
Waning Crescent, 3% visible
SPECI KOTM 250128Z AUTO 32022G26KT 2SM -SN BR SCT011 BKN019 OVC024 M03/M04 A2976 RMK AO2 PK WND 33031/0106 P0000 T10281039

Get Your Daily Forecast Email!

Thanks for signing up!

Be on the lookout for a verification email in your inbox.

You'll start receiving the daily forecast at 8 AM.

×

10-Day Weather Forecast

Almanac

Astronomy

Feb. 24, 2017 Rise Set
Actual Time
Civil Twilight
Nautical Twilight
Astronomical Twilight
Moon
Length of Visible Light
Length of Day
Tomorrow will be .
, % of the Moon is Illuminated

Today's Extremes

State Highs State Lows

Community

WunderPhotos

Upload Photos

1,962,540 photos uploaded!

WunderBlog® & News

Nearby

Air Quality

  Air Quality AQ Index Pollutant
Not available.

Snow Depth

Station Depth Elevation

Earthquake Activity

City Distance Mag. Time & Date
Minimum magnitude displayed is 2.5.

Coastal Water Temperatures

Place Temperature

Stations

Nearby Weather Stations

Station Location Temp. Windchill Dew Point Humidity Wind Precip. Elev Updated Type
                   

Watches & Warnings

There are currently no watches in effect.